Sunday, May 27, 2018, 5:59 AM EDT
Back to Local

KART, Watertown International Airport

Location: Dexter, NY, United States Lat: 43.983
Local Time: 5:59 AM EDT ( 9:59 GMT) Lon: -76.033
Time Zone: US/Eastern Elev: 324 ft

Show me the last for .
Show Decoded

2018-05-27 05:41 METAR KART 270941Z AUTO 05003KT 3SM BR FEW080 14/14 A2991 RMK AO2 T01440144 =
2018-05-27 05:22 METAR KART 270922Z AUTO 00000KT 1 3/4SM BR SCT080 14/14 A2990 RMK AO2 T01440144
                 =
2018-05-27 05:11 METAR KART 270911Z AUTO 00000KT 3SM BR CLR 14/14 A2990 RMK AO2 T01440144 =
2018-05-27 05:02 METAR KART 270902Z AUTO 04004KT 1 3/4SM BR CLR 15/15 A2990 RMK AO2 T01500150 =
2018-05-27 04:56 METAR KART 270856Z AUTO 00000KT 5SM BR CLR 15/15 A2990 RMK AO2 SLP121 T01500150
                 53005 =
2018-05-27 03:56 METAR KART 270756Z AUTO 01003KT 10SM CLR 17/17 A2989 RMK AO2 SLP117 T01720167 =
2018-05-27 02:56 METAR KART 270656Z AUTO 08003KT 9SM CLR 17/17 A2988 RMK AO2 SLP113 T01670167 =
2018-05-27 01:56 METAR KART 270556Z AUTO 05004KT 10SM CLR 17/17 A2988 RMK AO2 SLP115 T01720167
                 10222 20172 58002 =
2018-05-27 00:56 METAR KART 270456Z AUTO 02005KT 10SM CLR 19/17 A2989 RMK AO2 SLP115 T01890172
                 402560167 =
2018-05-26 23:56 METAR KART 270356Z AUTO 07005KT 10SM CLR 19/17 A2989 RMK AO2 SLP117 T01890172 =
2018-05-26 22:56 METAR KART 270256Z AUTO 06008KT 10SM CLR 19/17 A2989 RMK AO2 SLP117 T01940172
                 51013 =
2018-05-26 21:56 METAR KART 270156Z AUTO 04005KT 10SM CLR 20/17 A2989 RMK AO2 SLP117 T02000172 =
2018-05-26 20:56 METAR KART 270056Z AUTO 04004KT 10SM CLR 21/17 A2987 RMK AO2 SLP109 T02110172 =
2018-05-26 19:56 METAR KART 262356Z AUTO 05006KT 10SM SCT075 22/17 A2985 RMK AO2 SLP105 T02220172
                 10256 20222 53013 =
2018-05-26 18:56 METAR KART 262256Z AUTO 03008KT 9SM CLR 24/18 A2983 RMK AO2 SLP098 T02440183 =
2018-05-26 17:56 METAR KART 262156Z AUTO 27005KT 10SM CLR 24/16 A2982 RMK AO2 SLP092 T02390161 =
2018-05-26 16:56 METAR KART 262056Z AUTO 27006KT 10SM CLR 25/16 A2981 RMK AO2 SLP091 T02500161
                 53000 =
2018-05-26 15:56 METAR KART 261956Z AUTO 27009KT 10SM CLR 24/16 A2981 RMK AO2 SLP091 T02440161 =
2018-05-26 14:56 METAR KART 261856Z AUTO 24005KT 10SM CLR 24/16 A2981 RMK AO2 SLP089 T02440156 =
2018-05-26 13:56 METAR KART 261756Z AUTO 26007KT 10SM CLR 24/15 A2981 RMK AO2 SLP090 T02390150
                 10244 20178 51008 =
2018-05-26 12:56 METAR KART 261656Z AUTO 26006KT 10SM SCT110 23/14 A2981 RMK AO2 SLP091 T02280139
                 =
2018-05-26 11:56 METAR KART 261556Z AUTO 26009KT 10SM FEW110 22/13 A2980 RMK AO2 SLP087 T02170128
                 =
2018-05-26 10:56 METAR KART 261456Z AUTO 27011KT 10SM CLR 22/13 A2979 RMK AO2 SLP084 T02170133
                 53004 =
2018-05-26 09:56 METAR KART 261356Z AUTO 25007KT 10SM CLR 22/12 A2978 RMK AO2 SLP079 T02170122 =
2018-05-26 08:56 METAR KART 261256Z AUTO 22007KT 10SM CLR 19/12 A2978 RMK AO2 SLP080 T01940117 =
2018-05-26 07:56 METAR KART 261156Z AUTO 23004KT 10SM BKN075 18/12 A2978 RMK AO2 SLP079 T01780122
                 10200 20167 51017 =
2018-05-26 06:56 METAR KART 261056Z AUTO 26008KT 10SM BKN070 BKN090 18/11 A2976 RMK AO2 SLP075
                 T01780111 =

Support USWX by starting your Amazon purchase here.